St. Paul Lake Elmo, MN

6:08 AM CST on November 21, 2019 (GMT -0600)
St. Paul Lake Elmo

Weather History for K21D - September, 2019

Change the Weather History Date:

Wednesday, September 25, 2019

  Actual Average (WUND) Record (WUND)
Temperature  
Mean Temperature 59 °F -  
Max Temperature 68 °F - - (-1)
Min Temperature 50 °F - - (-1)
Degree Days  
Heating Degree Days 6    
Growing Degree Days 9 (Base 50)    
Moisture  
Dew Point 49 °F    
Average Humidity 65    
Maximum Humidity 94    
Minimum Humidity 40    
Precipitation  
Precipitation 0.00 in - - ()
Sea Level Pressure  
Sea Level Pressure 29.73 in    
Wind  
Wind Speed 9 mph (West)    
Max Wind Speed 22 mph    
Max Gust Speed 32 mph    
Visibility 10 miles    
Events      
Averages and records for this station are not official NWS values.
T = Trace of Precipitation, MM = Missing Value Source: NWS Daily Summary

Daily Weather History Graph

Daily Weather History Graph

Search for Another Location

Airport or City:

Astronomy

Sep. 25, 2019 Rise Set
Actual Time 7:01 AM CDT 7:03 PM CDT
Civil Twilight 6:32 AM CDT 7:32 PM CDT
Nautical Twilight 5:58 AM CDT 8:07 PM CDT
Astronomical Twilight 5:23 AM CDT 8:41 PM CDT
Moon 2:42 AM CDT (9/25) 5:48 PM CDT (9/25)
Length of Visible Light 13h 00m
Length of Day
12h 01m
Waning Crescent, 14% of the Moon is Illuminated
Sep 25
Waning Crescent
Sep 28
New
Oct 5
First Quarter
Oct 13
Full
Oct 21
Last Quarter

Hourly Weather History & Observations

Time (CDT) Temp. Dew Point Humidity Pressure Visibility Wind Dir Wind Speed Gust Speed Precip Events Conditions
12:16 AM 62.6 °F 60.8 °F 94% 29.59 in 10.0 mi West 4.6 mph - N/A   Clear
12:35 AM 62.6 °F 60.8 °F 94% 29.59 in 10.0 mi West 5.8 mph - N/A   Clear
12:36 AM 62.6 °F 60.8 °F 94% 29.59 in 10.0 mi West 5.8 mph - N/A   Clear
12:55 AM 62.6 °F 60.8 °F 94% 29.60 in 10.0 mi West 5.8 mph - N/A   Clear
12:59 AM 62.6 °F 60.8 °F 94% 29.60 in 10.0 mi West 5.8 mph - N/A   Clear
1:18 AM 62.6 °F 60.8 °F 94% 29.60 in 10.0 mi WSW 5.8 mph - N/A   Scattered Clouds
1:35 AM 62.6 °F 59.0 °F 88% 29.60 in 10.0 mi WSW 4.6 mph - N/A   Mostly Cloudy
1:55 AM 62.6 °F 59.0 °F 88% 29.59 in 10.0 mi WSW 4.6 mph - N/A   Scattered Clouds
1:56 AM 62.6 °F 59.0 °F 88% 29.59 in 10.0 mi WSW 5.8 mph - N/A   Scattered Clouds
2:15 AM 62.6 °F 59.0 °F 88% 29.59 in 10.0 mi WSW 6.9 mph - N/A   Clear
2:16 AM 62.6 °F 59.0 °F 88% 29.59 in 10.0 mi WSW 6.9 mph - N/A   Clear
2:38 AM 62.6 °F 59.0 °F 88% 29.60 in 10.0 mi West 6.9 mph - N/A   Clear
2:56 AM 62.6 °F 59.0 °F 88% 29.60 in 10.0 mi West 9.2 mph - N/A   Clear
3:15 AM 60.8 °F 57.2 °F 88% 29.60 in 10.0 mi West 9.2 mph - N/A   Clear
3:16 AM 60.8 °F 57.2 °F 88% 29.60 in 10.0 mi West 9.2 mph - N/A   Clear
3:35 AM 60.8 °F 55.4 °F 82% 29.61 in 10.0 mi West 6.9 mph - N/A   Clear
3:58 AM 60.8 °F 55.4 °F 82% 29.60 in 10.0 mi West 8.1 mph - N/A   Clear
4:17 AM 59.0 °F 53.6 °F 82% 29.61 in 10.0 mi West 6.9 mph - N/A   Clear
4:36 AM 59.0 °F 53.6 °F 82% 29.61 in 10.0 mi West 6.9 mph - N/A   Clear
4:55 AM 59.0 °F 53.6 °F 82% 29.61 in 10.0 mi West 8.1 mph - N/A   Clear
4:56 AM 59.0 °F 53.6 °F 82% 29.62 in 10.0 mi West 9.2 mph - N/A   Clear
5:15 AM 59.0 °F 53.6 °F 82% 29.63 in 10.0 mi West 8.1 mph - N/A   Clear
5:19 AM 59.0 °F 53.6 °F 82% 29.63 in 10.0 mi West 9.2 mph - N/A   Clear
5:37 AM 59.0 °F 53.6 °F 82% 29.64 in 10.0 mi West 10.4 mph - N/A   Clear
5:56 AM 59.0 °F 53.6 °F 82% 29.64 in 10.0 mi West 12.7 mph - N/A   Clear
6:15 AM 59.0 °F 51.8 °F 77% 29.65 in 10.0 mi West 12.7 mph - N/A   Clear
6:16 AM 59.0 °F 51.8 °F 77% 29.65 in 10.0 mi West 10.4 mph - N/A   Clear
6:35 AM 57.2 °F 51.8 °F 82% 29.67 in 10.0 mi WNW 11.5 mph 18.4 mph N/A   Clear
6:59 AM 57.2 °F 51.8 °F 82% 29.67 in 10.0 mi WNW 13.8 mph 18.4 mph N/A   Clear
7:16 AM 57.2 °F 50.0 °F 77% 29.68 in 10.0 mi WNW 11.5 mph 19.6 mph N/A   Clear
7:35 AM 57.2 °F 50.0 °F 77% 29.69 in 10.0 mi WNW 10.4 mph 17.3 mph N/A   Clear
7:55 AM 57.2 °F 51.8 °F 82% 29.70 in 10.0 mi WNW 11.5 mph 16.1 mph N/A   Clear
7:56 AM 57.2 °F 50.0 °F 77% 29.71 in 10.0 mi WNW 10.4 mph - N/A   Clear
8:15 AM 59.0 °F 50.0 °F 72% 29.71 in 10.0 mi WNW 9.2 mph - N/A   Clear
8:19 AM 59.0 °F 51.8 °F 77% 29.72 in 10.0 mi WNW 10.4 mph - N/A   Clear
8:38 AM 59.0 °F 51.8 °F 77% 29.72 in 10.0 mi WNW 10.4 mph - N/A   Clear
8:55 AM 59.0 °F 51.8 °F 77% 29.72 in 10.0 mi NW 12.7 mph 16.1 mph N/A   Clear
9:15 AM 60.8 °F 51.8 °F 72% 29.73 in 10.0 mi WNW 9.2 mph 18.4 mph N/A   Clear
9:35 AM 60.8 °F 51.8 °F 72% 29.74 in 10.0 mi WNW 11.5 mph - N/A   Clear
9:36 AM 60.8 °F 51.8 °F 72% 29.74 in 10.0 mi WNW 12.7 mph - N/A   Clear
9:58 AM 62.6 °F 51.8 °F 68% 29.75 in 10.0 mi West 10.4 mph 19.6 mph N/A   Clear
10:16 AM 62.6 °F 51.8 °F 68% 29.75 in 10.0 mi West 13.8 mph 18.4 mph N/A   Clear
10:36 AM 62.6 °F 50.0 °F 63% 29.76 in 10.0 mi WNW 12.7 mph 18.4 mph N/A   Clear
10:55 AM 64.4 °F 50.0 °F 59% 29.76 in 10.0 mi West 15.0 mph 18.4 mph N/A   Clear
10:56 AM 64.4 °F 50.0 °F 59% 29.76 in 10.0 mi West 15.0 mph 18.4 mph N/A   Clear
11:15 AM 64.4 °F 50.0 °F 59% 29.77 in 10.0 mi West 13.8 mph 19.6 mph N/A   Clear
11:19 AM 64.4 °F 48.2 °F 56% 29.77 in 10.0 mi WNW 17.3 mph 20.7 mph N/A   Clear
11:38 AM 64.4 °F 46.4 °F 52% 29.77 in 10.0 mi WNW 15.0 mph 19.6 mph N/A   Clear
11:55 AM 66.2 °F 50.0 °F 56% 29.77 in 10.0 mi West 13.8 mph 19.6 mph N/A   Scattered Clouds
12:15 PM 64.4 °F 46.4 °F 52% 29.77 in 10.0 mi WNW 12.7 mph 21.9 mph N/A   Scattered Clouds
12:16 PM 64.4 °F 46.4 °F 52% 29.77 in 10.0 mi WNW 12.7 mph 21.9 mph N/A   Scattered Clouds
12:35 PM 64.4 °F 44.6 °F 49% 29.77 in 10.0 mi West 16.1 mph 23.0 mph N/A   Scattered Clouds
12:36 PM 64.4 °F 46.4 °F 52% 29.77 in 10.0 mi West 13.8 mph 23.0 mph N/A   Scattered Clouds
12:59 PM 66.2 °F 48.2 °F 52% 29.76 in 10.0 mi WNW 9.2 mph 18.4 mph N/A   Scattered Clouds
1:16 PM 68.0 °F 50.0 °F 52% 29.76 in 10.0 mi West 16.1 mph 21.9 mph N/A   Scattered Clouds
1:35 PM 64.4 °F 46.4 °F 52% 29.76 in 10.0 mi WNW 11.5 mph 17.3 mph N/A   Scattered Clouds
1:36 PM 66.2 °F 46.4 °F 49% 29.76 in 10.0 mi WNW 10.4 mph 17.3 mph N/A   Scattered Clouds
1:55 PM 68.0 °F 44.6 °F 43% 29.75 in 10.0 mi West 12.7 mph 20.7 mph N/A   Scattered Clouds
1:56 PM 68.0 °F 44.6 °F 43% 29.75 in 10.0 mi West 12.7 mph 20.7 mph N/A   Scattered Clouds
2:15 PM 68.0 °F 44.6 °F 43% 29.75 in 10.0 mi West 17.3 mph 32.2 mph N/A   Scattered Clouds
2:20 PM 68.0 °F 44.6 °F 43% 29.75 in 10.0 mi West 13.8 mph 32.2 mph N/A   Scattered Clouds
2:38 PM 68.0 °F 44.6 °F 43% 29.75 in 10.0 mi West 15.0 mph 27.6 mph N/A   Scattered Clouds
2:55 PM 68.0 °F 42.8 °F 40% 29.76 in 10.0 mi West 21.9 mph 31.1 mph N/A   Scattered Clouds
3:15 PM 68.0 °F 42.8 °F 40% 29.75 in 10.0 mi West 16.1 mph 23.0 mph N/A   Mostly Cloudy
3:16 PM 68.0 °F 42.8 °F 40% 29.75 in 10.0 mi West 18.4 mph 24.2 mph N/A   Mostly Cloudy
3:35 PM 68.0 °F 44.6 °F 43% 29.75 in 10.0 mi West 15.0 mph 25.3 mph N/A   Mostly Cloudy
3:36 PM 68.0 °F 44.6 °F 43% 29.75 in 10.0 mi West 16.1 mph 25.3 mph N/A   Scattered Clouds
3:58 PM 66.2 °F 42.8 °F 43% 29.75 in 10.0 mi West 15.0 mph 24.2 mph N/A   Scattered Clouds
4:17 PM 64.4 °F 42.8 °F 45% 29.76 in 10.0 mi WNW 12.7 mph 20.7 mph N/A   Scattered Clouds
4:36 PM 64.4 °F 44.6 °F 49% 29.76 in 10.0 mi WNW 13.8 mph 20.7 mph N/A   Scattered Clouds
4:55 PM 64.4 °F 42.8 °F 45% 29.76 in 10.0 mi West 16.1 mph 24.2 mph N/A   Scattered Clouds
4:56 PM 64.4 °F 42.8 °F 45% 29.76 in 10.0 mi West 13.8 mph 24.2 mph N/A   Scattered Clouds
5:15 PM 64.4 °F 42.8 °F 45% 29.76 in 10.0 mi West 12.7 mph 20.7 mph N/A   Scattered Clouds
5:19 PM 64.4 °F 42.8 °F 45% 29.76 in 10.0 mi West 11.5 mph 20.7 mph N/A   Clear
5:38 PM 62.6 °F 42.8 °F 48% 29.77 in 10.0 mi NW 11.5 mph 18.4 mph N/A   Scattered Clouds
5:55 PM 62.6 °F 44.6 °F 52% 29.77 in 10.0 mi West 9.2 mph - N/A   Scattered Clouds
6:15 PM 62.6 °F 42.8 °F 48% 29.77 in 10.0 mi West 13.8 mph 19.6 mph N/A   Clear
6:16 PM 62.6 °F 42.8 °F 48% 29.77 in 10.0 mi West 13.8 mph 19.6 mph N/A   Clear
6:35 PM 62.6 °F 41.0 °F 45% 29.77 in 10.0 mi West 13.8 mph 20.7 mph N/A   Scattered Clouds
6:36 PM 62.6 °F 41.0 °F 45% 29.77 in 10.0 mi West 12.7 mph 20.7 mph N/A   Scattered Clouds
6:58 PM 60.8 °F 41.0 °F 48% 29.78 in 10.0 mi West 10.4 mph 17.3 mph N/A   Clear
7:17 PM 60.8 °F 42.8 °F 52% 29.79 in 10.0 mi West 10.4 mph 19.6 mph N/A   Clear
7:36 PM 60.8 °F 42.8 °F 52% 29.79 in 10.0 mi West 10.4 mph - N/A   Scattered Clouds
7:55 PM 60.8 °F 42.8 °F 52% 29.80 in 10.0 mi West 9.2 mph - N/A   Mostly Cloudy
8:15 PM 57.2 °F 44.6 °F 63% 29.82 in 10.0 mi West 6.9 mph - N/A   Scattered Clouds
8:19 PM 57.2 °F 44.6 °F 63% 29.82 in 10.0 mi West 4.6 mph - N/A   Scattered Clouds
8:37 PM 57.2 °F 42.8 °F 59% 29.83 in 10.0 mi West 5.8 mph - N/A   Clear
8:55 PM 57.2 °F 44.6 °F 63% 29.84 in 10.0 mi West 9.2 mph - N/A   Clear
9:15 PM 57.2 °F 42.8 °F 59% 29.85 in 10.0 mi West 6.9 mph - N/A   Clear
9:16 PM 57.2 °F 42.8 °F 59% 29.85 in 10.0 mi West 8.1 mph - N/A   Clear
9:35 PM 57.2 °F 42.8 °F 59% 29.86 in 10.0 mi West 8.1 mph - N/A   Clear
9:36 PM 57.2 °F 42.8 °F 59% 29.86 in 10.0 mi West 6.9 mph - N/A   Clear
9:58 PM 55.4 °F 42.8 °F 63% 29.86 in 10.0 mi West 5.8 mph - N/A   Scattered Clouds
10:17 PM 55.4 °F 42.8 °F 63% 29.87 in 10.0 mi Calm Calm - N/A   Scattered Clouds
10:36 PM 53.6 °F 42.8 °F 67% 29.87 in 10.0 mi Calm Calm - N/A   Clear
10:55 PM 50.0 °F 42.8 °F 76% 29.87 in 10.0 mi Calm Calm - N/A   Clear
10:56 PM 50.0 °F 42.8 °F 76% 29.87 in 10.0 mi Calm Calm - N/A   Clear
11:15 PM 51.8 °F 42.8 °F 71% 29.87 in 10.0 mi West 5.8 mph - N/A   Clear
11:19 PM 51.8 °F 42.8 °F 71% 29.87 in 10.0 mi West 4.6 mph - N/A   Clear
11:38 PM 51.8 °F 42.8 °F 71% 29.88 in 10.0 mi West 8.1 mph - N/A   Clear
11:55 PM 53.6 °F 42.8 °F 67% 29.87 in 10.0 mi West 6.9 mph - N/A   Clear